createdAt,value
2022-11-26T00:02:27.038Z,89.53
2022-11-26T00:05:14.807Z,88.18
2022-11-26T00:08:01.999Z,86.70
2022-11-26T00:10:51.009Z,90.72
2022-11-26T00:13:36.456Z,90.65
2022-11-26T00:16:22.439Z,94.80
2022-11-26T00:19:08.074Z,90.50
2022-11-26T00:21:53.911Z,95.43
2022-11-26T00:24:39.773Z,93.35
2022-11-26T00:27:27.501Z,92.07
2022-11-26T00:30:23.645Z,94.25
2022-11-26T00:33:09.214Z,93.53
2022-11-26T00:35:59.105Z,88.90
2022-11-26T00:38:47.219Z,87.47
2022-11-26T00:41:35.791Z,84.18
2022-11-26T00:44:23.360Z,86.32
2022-11-26T00:47:10.087Z,80.53
2022-11-26T00:49:55.699Z,79.63
2022-11-26T00:52:41.697Z,80.97
2022-11-26T00:55:31.970Z,79.05
2022-11-26T00:58:27.693Z,82.10
2022-11-26T01:01:16.464Z,80.15
2022-11-26T01:04:02.259Z,83.90
2022-11-26T01:06:48.065Z,76.43
2022-11-26T01:09:33.559Z,77.38
2022-11-26T01:12:18.889Z,81.60
2022-11-26T01:15:04.929Z,72.68
2022-11-26T01:17:51.996Z,80.15
2022-11-26T01:20:37.386Z,76.65
2022-11-26T01:23:23.195Z,76.03
2022-11-26T01:26:18.289Z,82.57
2022-11-26T01:29:04.495Z,82.53
2022-11-26T01:31:50.343Z,80.07
2022-11-26T01:34:36.025Z,77.72
2022-11-26T01:37:22.189Z,75.45
2022-11-26T01:40:47.047Z,74.68
2022-11-26T01:43:43.308Z,73.80
2022-11-26T01:46:30.963Z,81.40
2022-11-26T01:49:17.907Z,83.65
2022-11-26T01:52:03.577Z,81.53
2022-11-26T01:54:50.826Z,85.60
2022-11-26T01:57:38.754Z,82.40
2022-11-26T02:00:24.624Z,83.20
2022-11-26T02:03:10.740Z,85.00
2022-11-26T02:06:02.168Z,83.90
2022-11-26T02:08:48.080Z,84.32
2022-11-26T02:11:33.823Z,93.07
2022-11-26T02:14:26.873Z,89.05
2022-11-26T02:17:15.320Z,83.83
2022-11-26T02:20:22.165Z,87.32
2022-11-26T02:23:40.076Z,88.57
2022-11-26T02:26:35.096Z,84.25
2022-11-26T02:29:43.067Z,83.95
2022-11-26T02:32:51.615Z,91.53
2022-11-26T02:35:55.934Z,87.45
2022-11-26T02:38:41.932Z,95.65
2022-11-26T02:41:33.871Z,96.82
2022-11-26T02:44:23.970Z,91.00
2022-11-26T02:47:14.318Z,99.45
2022-11-26T02:50:07.309Z,96.20
2022-11-26T02:52:55.002Z,98.35
2022-11-26T02:55:46.055Z,104.28
2022-11-26T02:58:33.114Z,101.43
2022-11-26T03:01:31.770Z,99.38
2022-11-26T03:04:22.913Z,98.57
2022-11-26T03:07:10.170Z,105.68
2022-11-26T03:09:58.690Z,111.82
2022-11-26T03:12:44.440Z,101.93
2022-11-26T03:15:30.155Z,103.88
2022-11-26T03:18:15.715Z,97.38
2022-11-26T03:21:01.486Z,103.38
2022-11-26T03:23:46.884Z,106.07
2022-11-26T03:26:32.280Z,105.93
2022-11-26T03:29:18.099Z,107.32
2022-11-26T03:32:04.242Z,110.03
2022-11-26T03:34:50.281Z,110.28
2022-11-26T03:37:35.905Z,108.05
2022-11-26T03:40:21.853Z,110.00
2022-11-26T03:43:07.607Z,111.22
2022-11-26T03:45:53.571Z,110.70
2022-11-26T03:48:39.362Z,128.52
2022-11-26T03:51:26.636Z,120.20
2022-11-26T03:54:12.339Z,117.53
2022-11-26T03:56:58.154Z,124.22
2022-11-26T03:59:43.637Z,117.10
2022-11-26T04:02:28.937Z,124.00
2022-11-26T04:05:14.584Z,121.10
2022-11-26T04:08:00.233Z,115.18
2022-11-26T04:10:46.112Z,122.70
2022-11-26T04:13:31.672Z,120.03
2022-11-26T04:16:17.252Z,122.82
2022-11-26T04:19:02.844Z,117.20
2022-11-26T04:21:48.416Z,118.25
2022-11-26T04:24:34.331Z,124.38
2022-11-26T04:27:19.792Z,112.22
2022-11-26T04:30:07.784Z,119.15
2022-11-26T04:32:53.287Z,121.93
2022-11-26T04:35:39.031Z,115.28
2022-11-26T04:38:26.106Z,119.38
2022-11-26T04:41:12.056Z,120.53
2022-11-26T04:43:57.492Z,113.75
2022-11-26T04:46:43.374Z,118.25
2022-11-26T04:49:28.657Z,119.05
2022-11-26T04:52:14.608Z,112.00
2022-11-26T04:55:00.422Z,110.93
2022-11-26T04:57:48.583Z,118.43
2022-11-26T05:00:34.420Z,115.03
2022-11-26T05:03:20.128Z,114.50
2022-11-26T05:06:05.934Z,116.43
2022-11-26T05:08:51.835Z,117.22
2022-11-26T05:11:37.585Z,112.90
2022-11-26T05:14:23.048Z,115.35
2022-11-26T05:17:08.560Z,119.10
2022-11-26T05:19:53.909Z,111.00
2022-11-26T05:22:39.627Z,103.80
2022-11-26T05:25:25.299Z,90.80
2022-11-26T05:28:11.011Z,92.80
2022-11-26T05:31:01.181Z,88.85
2022-11-26T05:33:46.702Z,80.00
2022-11-26T05:36:32.380Z,78.78
2022-11-26T05:39:18.340Z,81.43
2022-11-26T05:42:08.978Z,81.43
2022-11-26T05:44:55.266Z,89.22
2022-11-26T05:47:40.753Z,74.18
2022-11-26T05:50:26.727Z,74.97
2022-11-26T05:53:12.242Z,73.18
2022-11-26T05:55:58.121Z,73.78
2022-11-26T05:58:43.656Z,68.43
2022-11-26T06:01:29.336Z,73.28
2022-11-26T06:04:14.997Z,75.32
2022-11-26T06:07:00.358Z,81.70
2022-11-26T06:09:45.908Z,77.85
2022-11-26T06:12:31.470Z,76.10
2022-11-26T06:15:17.295Z,83.30
2022-11-26T06:18:03.247Z,87.85
2022-11-26T06:20:48.680Z,78.97
2022-11-26T06:23:34.791Z,79.93
2022-11-26T06:26:20.250Z,80.65
2022-11-26T06:29:05.962Z,86.05
2022-11-26T06:31:51.833Z,76.60
2022-11-26T06:34:37.538Z,68.88
2022-11-26T06:37:23.573Z,71.20
2022-11-26T06:40:15.499Z,75.15
2022-11-26T06:43:01.272Z,71.07
2022-11-26T06:45:46.915Z,79.75
2022-11-26T06:48:33.587Z,77.50
2022-11-26T06:51:22.412Z,75.00
2022-11-26T06:54:08.291Z,71.15
2022-11-26T06:56:53.749Z,66.28
2022-11-26T06:59:39.350Z,69.95
2022-11-26T07:02:25.150Z,66.15
2022-11-26T07:05:10.721Z,67.68
2022-11-26T07:07:56.377Z,72.72
2022-11-26T07:10:46.100Z,64.97
2022-11-26T07:13:34.716Z,73.28
2022-11-26T07:16:21.007Z,81.38
2022-11-26T07:19:06.883Z,68.35
2022-11-26T07:21:52.834Z,70.55
2022-11-26T07:24:38.533Z,65.82
2022-11-26T07:27:24.190Z,76.97
2022-11-26T07:30:10.152Z,66.70
2022-11-26T07:32:55.706Z,74.15
2022-11-26T07:35:41.469Z,65.15
2022-11-26T07:38:28.231Z,68.57
2022-11-26T07:41:16.273Z,67.60
2022-11-26T07:44:01.901Z,74.82
2022-11-26T07:46:47.391Z,67.38
2022-11-26T07:49:33.024Z,65.43
2022-11-26T07:52:18.703Z,67.68
2022-11-26T07:55:09.482Z,66.63
2022-11-26T07:57:57.771Z,67.65
2022-11-26T08:00:43.299Z,72.93
2022-11-26T08:03:28.938Z,70.28
2022-11-26T08:06:20.528Z,71.80
2022-11-26T08:09:07.616Z,74.05
2022-11-26T08:11:53.170Z,79.47
2022-11-26T08:14:39.087Z,73.90
2022-11-26T08:17:25.248Z,78.38
2022-11-26T08:20:11.236Z,80.07
2022-11-26T08:22:57.057Z,82.70
2022-11-26T08:26:06.120Z,85.53
2022-11-26T08:28:48.928Z,89.55
2022-11-26T08:31:34.964Z,87.70
2022-11-26T08:34:20.997Z,88.25
2022-11-26T08:37:06.865Z,101.45
2022-11-26T08:39:52.673Z,112.55
2022-11-26T08:42:38.221Z,110.22
2022-11-26T08:45:23.929Z,120.32
2022-11-26T08:48:09.835Z,115.93
2022-11-26T08:51:00.479Z,116.55
2022-11-26T08:53:46.251Z,128.65
2022-11-26T08:56:31.937Z,125.75
2022-11-26T08:59:19.860Z,122.90
2022-11-26T09:02:05.647Z,147.77
2022-11-26T09:04:51.113Z,130.60
2022-11-26T09:07:36.810Z,145.00
2022-11-26T09:10:22.265Z,149.32
2022-11-26T09:13:07.928Z,148.10
2022-11-26T09:15:53.595Z,149.27
2022-11-26T09:18:39.280Z,150.13
2022-11-26T09:21:24.802Z,154.65
2022-11-26T09:24:13.410Z,145.75
2022-11-26T09:27:04.178Z,144.65
2022-11-26T09:29:53.205Z,151.00
2022-11-26T09:32:38.948Z,143.60
2022-11-26T09:35:25.217Z,136.40
2022-11-26T09:38:10.665Z,134.57
2022-11-26T09:41:13.702Z,128.07
2022-11-26T09:44:27.048Z,125.07
2022-11-26T09:47:19.874Z,125.82
2022-11-26T09:50:11.311Z,113.18
2022-11-26T09:53:12.776Z,114.45
2022-11-26T09:56:00.585Z,113.18
2022-11-26T09:58:52.278Z,106.30
2022-11-26T10:01:37.834Z,115.38
2022-11-26T10:04:33.187Z,103.43
2022-11-26T10:07:49.679Z,100.30
2022-11-26T10:10:52.024Z,95.25
2022-11-26T10:13:37.770Z,105.13
2022-11-26T10:16:46.813Z,98.22
2022-11-26T10:19:57.509Z,101.32
2022-11-26T10:22:56.910Z,98.47
2022-11-26T10:26:15.712Z,98.32
2022-11-26T10:29:25.982Z,92.10
2022-11-26T10:32:16.979Z,100.38
2022-11-26T10:35:03.101Z,91.20
2022-11-26T10:37:49.955Z,91.38
2022-11-26T10:40:35.715Z,89.38
2022-11-26T10:43:24.546Z,84.70
2022-11-26T10:46:33.925Z,86.05
2022-11-26T10:49:30.390Z,84.65
2022-11-26T10:52:20.915Z,88.63
2022-11-26T10:55:21.113Z,89.22
2022-11-26T10:58:19.168Z,89.18
2022-11-26T11:01:06.035Z,88.43
2022-11-26T11:04:10.541Z,84.18
2022-11-26T11:06:57.378Z,87.32
2022-11-26T11:09:43.492Z,84.05
2022-11-26T11:12:29.025Z,91.30
2022-11-26T11:15:23.597Z,89.35
2022-11-26T11:18:36.086Z,74.60
2022-11-26T11:21:22.451Z,82.25
2022-11-26T11:24:11.161Z,79.32
2022-11-26T11:26:58.681Z,92.40
2022-11-26T11:29:46.439Z,90.07
2022-11-26T11:32:39.046Z,81.55
2022-11-26T11:35:30.300Z,89.77
2022-11-26T11:38:24.591Z,88.38
2022-11-26T11:41:26.247Z,86.68
2022-11-26T11:44:25.373Z,84.43
2022-11-26T11:47:48.458Z,83.35
2022-11-26T11:50:44.208Z,78.13
2022-11-26T11:53:38.944Z,82.85
2022-11-26T11:56:38.501Z,83.45
2022-11-26T11:59:58.725Z,87.97
2022-11-26T12:03:18.788Z,102.47
2022-11-26T12:06:14.507Z,97.38
2022-11-26T12:09:49.899Z,107.88
2022-11-26T12:12:50.822Z,104.10
2022-11-26T12:16:03.106Z,102.20
2022-11-26T12:19:18.933Z,102.25
2022-11-26T12:22:39.932Z,92.80
2022-11-26T12:25:37.177Z,96.85
2022-11-26T12:28:31.808Z,106.93
2022-11-26T12:31:26.375Z,105.63
2022-11-26T12:34:14.831Z,97.40
2022-11-26T12:37:28.274Z,102.50
2022-11-26T12:40:16.918Z,129.20
2022-11-26T12:43:16.172Z,108.95
2022-11-26T12:46:17.458Z,100.50
2022-11-26T12:49:24.150Z,96.55
2022-11-26T12:52:25.755Z,114.35
2022-11-26T12:55:32.980Z,122.15
2022-11-26T12:58:27.169Z,120.72
2022-11-26T13:01:13.299Z,119.13
2022-11-26T13:04:22.009Z,118.60
2022-11-26T13:07:15.378Z,117.30
2022-11-26T13:10:20.303Z,107.63
2022-11-26T13:13:41.460Z,112.20
2022-11-26T13:16:39.999Z,122.47
2022-11-26T13:19:41.900Z,128.48
2022-11-26T13:22:52.713Z,115.35
2022-11-26T13:26:06.767Z,113.47
2022-11-26T13:32:11.322Z,111.10
2022-11-26T13:35:19.675Z,119.50
2022-11-26T13:38:38.193Z,116.70
2022-11-26T13:41:39.525Z,108.70
2022-11-26T13:44:36.879Z,123.70
2022-11-26T13:47:33.056Z,117.03
2022-11-26T13:50:18.850Z,117.45
2022-11-26T13:53:18.133Z,124.28
2022-11-26T13:56:07.449Z,120.60
2022-11-26T13:59:04.696Z,116.35
2022-11-26T14:01:50.840Z,122.88
2022-11-26T14:04:49.103Z,125.78
2022-11-26T14:07:34.855Z,121.38
2022-11-26T14:10:41.506Z,123.72
2022-11-26T14:13:27.906Z,117.07
2022-11-26T14:16:13.869Z,108.43
2022-11-26T14:19:00.642Z,124.65
2022-11-26T14:21:59.352Z,121.72
2022-11-26T14:24:48.481Z,114.13
2022-11-26T14:27:59.126Z,118.70
2022-11-26T14:30:45.120Z,131.05
2022-11-26T14:33:32.148Z,128.05
2022-11-26T14:36:31.479Z,127.47
2022-11-26T14:39:17.267Z,124.90
2022-11-26T14:42:06.427Z,139.20
2022-11-26T14:45:17.039Z,139.00
2022-11-26T14:48:03.929Z,132.02
2022-11-26T14:50:50.864Z,133.77
2022-11-26T14:53:40.879Z,130.05
2022-11-26T14:56:27.556Z,127.47
2022-11-26T14:59:18.626Z,123.82
2022-11-26T15:02:22.086Z,134.95
2022-11-26T15:05:24.122Z,132.27
2022-11-26T15:08:20.378Z,141.00
2022-11-26T15:11:07.573Z,142.55
2022-11-26T15:13:53.586Z,139.20
2022-11-26T15:16:41.436Z,151.30
2022-11-26T15:19:30.700Z,139.93
2022-11-26T15:22:27.252Z,142.35
2022-11-26T15:25:28.411Z,138.00
2022-11-26T15:28:20.336Z,140.57
2022-11-26T15:31:09.956Z,135.48
2022-11-26T15:33:55.968Z,137.88
2022-11-26T15:36:41.940Z,136.00
2022-11-26T15:39:31.564Z,137.93
2022-11-26T15:42:35.861Z,148.77
2022-11-26T15:48:28.123Z,155.45
2022-11-26T15:51:37.441Z,141.40
2022-11-26T15:54:56.710Z,134.90
2022-11-26T15:57:42.048Z,151.02
2022-11-26T16:00:38.479Z,146.13
2022-11-26T16:03:43.188Z,140.35
2022-11-26T16:06:36.837Z,146.95
2022-11-26T16:12:34.389Z,144.50
2022-11-26T16:15:24.611Z,143.43
2022-11-26T16:18:17.220Z,146.57
2022-11-26T16:21:08.669Z,145.87
2022-11-26T16:24:01.785Z,145.50
2022-11-26T16:27:05.338Z,146.82
2022-11-26T16:29:50.908Z,153.45
2022-11-26T16:32:36.576Z,140.88
2022-11-26T16:35:44.721Z,140.02
2022-11-26T16:38:31.307Z,143.95
2022-11-26T16:41:18.943Z,125.88
2022-11-26T16:44:04.949Z,124.10
2022-11-26T16:46:51.969Z,120.80
2022-11-26T16:49:37.977Z,125.70
2022-11-26T16:52:23.929Z,118.53
2022-11-26T16:55:13.668Z,113.60
2022-11-26T16:58:01.498Z,125.00
2022-11-26T17:00:47.272Z,124.57
2022-11-26T17:03:33.486Z,113.95
2022-11-26T17:06:31.396Z,116.15
2022-11-26T17:09:20.705Z,119.80
2022-11-26T17:12:13.624Z,117.95
2022-11-26T17:14:59.065Z,118.90
2022-11-26T17:17:45.251Z,115.93
2022-11-26T17:20:31.067Z,115.47
2022-11-26T17:23:17.114Z,118.45
2022-11-26T17:26:05.289Z,118.00
2022-11-26T17:28:51.417Z,115.50
2022-11-26T17:31:37.437Z,124.15
2022-11-26T17:34:23.236Z,114.60
2022-11-26T17:37:15.043Z,106.75
2022-11-26T17:40:00.753Z,111.70
2022-11-26T17:42:46.804Z,110.75
2022-11-26T17:45:32.549Z,109.45
2022-11-26T17:48:19.047Z,122.18
2022-11-26T17:51:04.749Z,122.03
2022-11-26T17:53:50.424Z,132.85
2022-11-26T17:56:37.149Z,122.40
2022-11-26T17:59:24.029Z,122.28
2022-11-26T18:02:10.458Z,124.85
2022-11-26T18:04:56.240Z,125.95
2022-11-26T18:07:41.995Z,134.35
2022-11-26T18:10:27.372Z,122.28
2022-11-26T18:13:14.281Z,128.27
2022-11-26T18:16:00.635Z,138.30
2022-11-26T18:18:45.820Z,125.80
2022-11-26T18:21:31.576Z,121.68
2022-11-26T18:24:17.194Z,115.85
2022-11-26T18:27:04.304Z,113.85
2022-11-26T18:29:50.445Z,114.20
2022-11-26T18:32:37.952Z,104.13
2022-11-26T18:35:23.525Z,108.47
2022-11-26T18:38:11.354Z,107.97
2022-11-26T18:41:03.511Z,99.53
2022-11-26T18:43:49.512Z,104.00
2022-11-26T18:46:35.741Z,102.82
2022-11-26T18:49:21.379Z,100.55
2022-11-26T18:52:06.995Z,104.90
2022-11-26T18:54:52.537Z,96.50
2022-11-26T18:57:38.215Z,98.90
2022-11-26T19:00:23.710Z,96.57
2022-11-26T19:03:09.596Z,95.35
2022-11-26T19:05:55.979Z,86.00
2022-11-26T19:08:41.605Z,86.82
2022-11-26T19:11:30.644Z,79.18
2022-11-26T19:14:16.318Z,71.03
2022-11-26T19:17:01.962Z,73.65
2022-11-26T19:19:47.897Z,74.72
2022-11-26T19:22:34.218Z,70.15
2022-11-26T19:25:20.097Z,82.88
2022-11-26T19:28:06.648Z,71.45
2022-11-26T19:31:03.596Z,67.70
2022-11-26T19:33:54.130Z,72.47
2022-11-26T19:36:40.045Z,75.05
2022-11-26T19:39:25.620Z,67.43
2022-11-26T19:42:11.254Z,68.32
2022-11-26T19:44:56.809Z,76.25
2022-11-26T19:47:42.795Z,70.30
2022-11-26T19:50:28.415Z,68.65
2022-11-26T19:53:13.862Z,70.95
2022-11-26T19:56:12.797Z,61.10
2022-11-26T19:59:02.837Z,61.72
2022-11-26T20:01:49.026Z,55.63
2022-11-26T20:04:34.845Z,57.42
2022-11-26T20:07:22.732Z,59.22
2022-11-26T20:10:09.219Z,67.80
2022-11-26T20:12:55.051Z,59.33
2022-11-26T20:15:47.207Z,63.63
2022-11-26T20:18:34.193Z,62.10
2022-11-26T20:21:28.548Z,63.58
2022-11-26T20:24:16.676Z,61.25
2022-11-26T20:27:02.846Z,60.78
2022-11-26T20:29:48.003Z,59.65
2022-11-26T20:32:33.593Z,53.60
2022-11-26T20:35:19.279Z,58.13
2022-11-26T20:38:04.828Z,56.95
2022-11-26T20:40:50.471Z,56.65
2022-11-26T20:43:36.201Z,60.97
2022-11-26T20:46:22.292Z,63.83
2022-11-26T20:49:10.892Z,62.63
2022-11-26T20:51:56.610Z,64.45
2022-11-26T20:54:42.501Z,58.47
2022-11-26T20:57:28.280Z,64.03
2022-11-26T21:00:17.093Z,61.60
2022-11-26T21:03:02.824Z,62.80
2022-11-26T21:05:48.795Z,68.38
2022-11-26T21:08:36.414Z,65.82
2022-11-26T21:11:21.881Z,67.82
2022-11-26T21:14:13.388Z,71.38
2022-11-26T21:17:00.661Z,73.07
2022-11-26T21:19:46.202Z,71.90
2022-11-26T21:22:31.711Z,76.18
2022-11-26T21:25:19.679Z,74.60
2022-11-26T21:28:05.996Z,76.13
2022-11-26T21:30:51.549Z,71.97
2022-11-26T21:33:39.521Z,72.07
2022-11-26T21:36:25.578Z,83.82
2022-11-26T21:39:16.108Z,82.35
2022-11-26T21:42:01.940Z,75.88
2022-11-26T21:44:47.612Z,84.20
2022-11-26T21:47:33.605Z,79.68
2022-11-26T21:50:19.870Z,88.75
2022-11-26T21:53:05.598Z,84.80
2022-11-26T21:55:53.029Z,82.53
2022-11-26T21:58:38.996Z,85.18
2022-11-26T22:01:26.864Z,85.93
2022-11-26T22:04:15.927Z,84.10
2022-11-26T22:07:01.880Z,81.55
2022-11-26T22:09:47.508Z,80.03
2022-11-26T22:12:33.081Z,74.25
2022-11-26T22:15:20.242Z,91.15
2022-11-26T22:18:05.688Z,79.70
2022-11-26T22:20:54.449Z,81.97
2022-11-26T22:23:40.292Z,76.25
2022-11-26T22:26:28.228Z,78.82
2022-11-26T22:29:16.435Z,83.55
2022-11-26T22:32:02.120Z,80.10
2022-11-26T22:34:47.620Z,73.47
2022-11-26T22:37:33.774Z,69.65
2022-11-26T22:40:19.699Z,77.68
2022-11-26T22:43:05.207Z,71.35
2022-11-26T22:45:50.913Z,79.45
2022-11-26T22:48:36.717Z,74.43
2022-11-26T22:51:23.400Z,72.43
2022-11-26T22:54:12.046Z,75.40
2022-11-26T22:56:57.958Z,75.30
2022-11-26T22:59:44.224Z,71.15
2022-11-26T23:02:30.072Z,71.13
2022-11-26T23:05:15.692Z,74.65
2022-11-26T23:08:01.625Z,82.68
2022-11-26T23:10:50.945Z,83.70
2022-11-26T23:13:37.017Z,74.15
2022-11-26T23:16:25.643Z,75.97
2022-11-26T23:19:13.985Z,80.47
2022-11-26T23:21:59.822Z,69.45
2022-11-26T23:24:45.272Z,65.85
2022-11-26T23:27:30.938Z,80.57
2022-11-26T23:30:17.003Z,91.28
2022-11-26T23:33:02.648Z,105.00
2022-11-26T23:35:48.925Z,93.00
2022-11-26T23:38:35.655Z,81.50
2022-11-26T23:41:21.220Z,72.55
2022-11-26T23:44:07.155Z,57.22
2022-11-26T23:46:52.719Z,71.00
2022-11-26T23:49:38.772Z,58.17
2022-11-26T23:52:24.718Z,50.30
2022-11-26T23:55:10.380Z,55.20
2022-11-26T23:57:56.057Z,54.28
